sensor_id;sensor_type;location;lat;lon;timestamp;pressure;altitude;pressure_sealevel;temperature;humidity
3142;BME280;1581;51.568;6.998;2024-01-16T00:01:45;100097.03;;;3.12;100.00
3142;BME280;1581;51.568;6.998;2024-01-16T00:04:13;100089.28;;;3.10;100.00
3142;BME280;1581;51.568;6.998;2024-01-16T00:06:40;100097.16;;;3.10;100.00
3142;BME280;1581;51.568;6.998;2024-01-16T00:09:08;100092.25;;;3.07;100.00
3142;BME280;1581;51.568;6.998;2024-01-16T00:11:40;100101.06;;;2.98;100.00
3142;BME280;1581;51.568;6.998;2024-01-16T00:14:09;100101.09;;;3.06;100.00
3142;BME280;1581;51.568;6.998;2024-01-16T00:16:42;100096.81;;;3.05;100.00
3142;BME280;1581;51.568;6.998;2024-01-16T00:19:10;100104.16;;;3.19;100.00
3142;BME280;1581;51.568;6.998;2024-01-16T00:21:39;100106.91;;;3.18;100.00
3142;BME280;1581;51.568;6.998;2024-01-16T00:24:07;100108.25;;;3.22;100.00
3142;BME280;1581;51.568;6.998;2024-01-16T00:26:35;100107.75;;;3.18;100.00
3142;BME280;1581;51.568;6.998;2024-01-16T00:29:03;100100.16;;;3.15;100.00
3142;BME280;1581;51.568;6.998;2024-01-16T00:31:47;100112.19;;;3.18;100.00
3142;BME280;1581;51.568;6.998;2024-01-16T00:34:14;100121.69;;;3.11;100.00
3142;BME280;1581;51.568;6.998;2024-01-16T00:36:42;100123.34;;;3.12;100.00
3142;BME280;1581;51.568;6.998;2024-01-16T00:39:09;100118.81;;;2.96;100.00
3142;BME280;1581;51.568;6.998;2024-01-16T00:41:37;100120.59;;;3.21;100.00
3142;BME280;1581;51.568;6.998;2024-01-16T00:44:04;100121.44;;;2.96;100.00
3142;BME280;1581;51.568;6.998;2024-01-16T00:46:33;100112.63;;;3.05;100.00
3142;BME280;1581;51.568;6.998;2024-01-16T00:49:02;100121.84;;;3.09;100.00
3142;BME280;1581;51.568;6.998;2024-01-16T00:51:29;100123.09;;;2.97;100.00
3142;BME280;1581;51.568;6.998;2024-01-16T00:53:57;100133.47;;;2.99;100.00
3142;BME280;1581;51.568;6.998;2024-01-16T00:56:24;100135.63;;;3.03;100.00
3142;BME280;1581;51.568;6.998;2024-01-16T00:58:53;100131.25;;;3.12;100.00
3142;BME280;1581;51.568;6.998;2024-01-16T01:01:21;100134.56;;;3.14;100.00
3142;BME280;1581;51.568;6.998;2024-01-16T01:03:49;100144.81;;;2.99;100.00
3142;BME280;1581;51.568;6.998;2024-01-16T01:06:17;100143.22;;;3.06;100.00
3142;BME280;1581;51.568;6.998;2024-01-16T01:08:45;100143.72;;;3.10;100.00
3142;BME280;1581;51.568;6.998;2024-01-16T01:11:13;100145.09;;;3.14;100.00
3142;BME280;1581;51.568;6.998;2024-01-16T01:13:40;100147.88;;;3.20;100.00
3142;BME280;1581;51.568;6.998;2024-01-16T01:16:08;100151.97;;;3.15;100.00
3142;BME280;1581;51.568;6.998;2024-01-16T01:18:35;100146.81;;;3.05;100.00
3142;BME280;1581;51.568;6.998;2024-01-16T01:21:03;100155.06;;;2.85;100.00
3142;BME280;1581;51.568;6.998;2024-01-16T01:23:32;100157.88;;;3.09;100.00
3142;BME280;1581;51.568;6.998;2024-01-16T01:26:00;100155.59;;;3.14;100.00
3142;BME280;1581;51.568;6.998;2024-01-16T01:28:27;100153.22;;;3.03;100.00
3142;BME280;1581;51.568;6.998;2024-01-16T01:30:55;100161.06;;;2.95;100.00
3142;BME280;1581;51.568;6.998;2024-01-16T01:33:22;100168.09;;;2.86;100.00
3142;BME280;1581;51.568;6.998;2024-01-16T01:35:49;100160.16;;;3.04;100.00
3142;BME280;1581;51.568;6.998;2024-01-16T01:38:17;100162.19;;;2.92;100.00
3142;BME280;1581;51.568;6.998;2024-01-16T01:40:46;100167.47;;;2.92;100.00
3142;BME280;1581;51.568;6.998;2024-01-16T01:43:20;100169.84;;;3.03;100.00
3142;BME280;1581;51.568;6.998;2024-01-16T01:46:12;100166.84;;;2.98;100.00
3142;BME280;1581;51.568;6.998;2024-01-16T01:48:41;100165.56;;;3.02;100.00
3142;BME280;1581;51.568;6.998;2024-01-16T01:51:09;100178.19;;;2.99;100.00
3142;BME280;1581;51.568;6.998;2024-01-16T01:53:38;100171.31;;;3.06;100.00
3142;BME280;1581;51.568;6.998;2024-01-16T01:56:10;100170.97;;;3.01;100.00
3142;BME280;1581;51.568;6.998;2024-01-16T01:58:38;100164.31;;;3.14;100.00
3142;BME280;1581;51.568;6.998;2024-01-16T02:01:08;100176.34;;;3.17;100.00
3142;BME280;1581;51.568;6.998;2024-01-16T02:03:41;100169.56;;;2.89;100.00
3142;BME280;1581;51.568;6.998;2024-01-16T02:06:10;100183.03;;;2.86;100.00
3142;BME280;1581;51.568;6.998;2024-01-16T02:08:38;100181.97;;;2.96;100.00
3142;BME280;1581;51.568;6.998;2024-01-16T02:11:08;100178.19;;;2.99;100.00
3142;BME280;1581;51.568;6.998;2024-01-16T02:13:35;100175.31;;;3.10;100.00
3142;BME280;1581;51.568;6.998;2024-01-16T02:16:03;100173.22;;;2.96;100.00
3142;BME280;1581;51.568;6.998;2024-01-16T02:18:32;100175.09;;;3.03;100.00
3142;BME280;1581;51.568;6.998;2024-01-16T02:21:01;100172.16;;;2.81;100.00
3142;BME280;1581;51.568;6.998;2024-01-16T02:23:32;100170.53;;;2.88;100.00
3142;BME280;1581;51.568;6.998;2024-01-16T02:26:01;100172.59;;;2.94;100.00
3142;BME280;1581;51.568;6.998;2024-01-16T02:28:29;100164.00;;;2.92;100.00
3142;BME280;1581;51.568;6.998;2024-01-16T02:30:56;100166.31;;;2.95;100.00
3142;BME280;1581;51.568;6.998;2024-01-16T02:33:23;100165.16;;;2.89;100.00
3142;BME280;1581;51.568;6.998;2024-01-16T02:35:51;100169.41;;;2.90;100.00
3142;BME280;1581;51.568;6.998;2024-01-16T02:38:18;100172.88;;;2.91;100.00
3142;BME280;1581;51.568;6.998;2024-01-16T02:40:47;100165.28;;;2.88;100.00
3142;BME280;1581;51.568;6.998;2024-01-16T02:43:15;100170.03;;;2.84;100.00
3142;BME280;1581;51.568;6.998;2024-01-16T02:45:42;100168.09;;;2.86;100.00
3142;BME280;1581;51.568;6.998;2024-01-16T02:48:10;100160.66;;;2.82;100.00
3142;BME280;1581;51.568;6.998;2024-01-16T02:50:37;100159.06;;;2.89;100.00
3142;BME280;1581;51.568;6.998;2024-01-16T02:53:05;100159.34;;;2.86;100.00
3142;BME280;1581;51.568;6.998;2024-01-16T02:55:32;100161.72;;;2.97;100.00
3142;BME280;1581;51.568;6.998;2024-01-16T02:58:01;100170.97;;;3.01;100.00
3142;BME280;1581;51.568;6.998;2024-01-16T03:00:29;100169.38;;;3.08;100.00
3142;BME280;1581;51.568;6.998;2024-01-16T03:02:56;100163.91;;;3.01;100.00
3142;BME280;1581;51.568;6.998;2024-01-16T03:05:24;100177.38;;;2.98;100.00
3142;BME280;1581;51.568;6.998;2024-01-16T03:07:51;100172.94;;;2.99;100.00
3142;BME280;1581;51.568;6.998;2024-01-16T03:10:19;100166.13;;;2.88;100.00
3142;BME280;1581;51.568;6.998;2024-01-16T03:12:46;100167.91;;;2.88;100.00
3142;BME280;1581;51.568;6.998;2024-01-16T03:15:15;100175.25;;;3.02;100.00
3142;BME280;1581;51.568;6.998;2024-01-16T03:17:43;100177.97;;;2.92;100.00
3142;BME280;1581;51.568;6.998;2024-01-16T03:20:11;100160.44;;;3.01;100.00
3142;BME280;1581;51.568;6.998;2024-01-16T03:22:39;100174.59;;;3.00;100.00
3142;BME280;1581;51.568;6.998;2024-01-16T03:25:09;100165.47;;;3.12;100.00
3142;BME280;1581;51.568;6.998;2024-01-16T03:27:36;100163.97;;;3.09;100.00
3142;BME280;1581;51.568;6.998;2024-01-16T03:30:06;100172.50;;;3.11;100.00
3142;BME280;1581;51.568;6.998;2024-01-16T03:32:36;100172.13;;;3.24;100.00
3142;BME280;1581;51.568;6.998;2024-01-16T03:35:04;100168.22;;;3.10;100.00
3142;BME280;1581;51.568;6.998;2024-01-16T03:37:32;100167.03;;;3.05;100.00
3142;BME280;1581;51.568;6.998;2024-01-16T03:40:00;100175.31;;;3.10;100.00
3142;BME280;1581;51.568;6.998;2024-01-16T03:42:28;100167.16;;;2.95;100.00
3142;BME280;1581;51.568;6.998;2024-01-16T03:44:55;100172.63;;;3.02;100.00
3142;BME280;1581;51.568;6.998;2024-01-16T03:47:23;100167.13;;;3.13;100.00
3142;BME280;1581;51.568;6.998;2024-01-16T03:49:52;100163.88;;;3.27;100.00
3142;BME280;1581;51.568;6.998;2024-01-16T03:52:19;100162.66;;;3.13;100.00
3142;BME280;1581;51.568;6.998;2024-01-16T03:54:47;100172.69;;;3.10;100.00
3142;BME280;1581;51.568;6.998;2024-01-16T03:57:14;100170.75;;;3.20;100.00
3142;BME280;1581;51.568;6.998;2024-01-16T03:59:41;100180.91;;;3.15;100.00
3142;BME280;1581;51.568;6.998;2024-01-16T04:02:09;100176.34;;;3.17;100.00
3142;BME280;1581;51.568;6.998;2024-01-16T04:04:36;100173.88;;;3.15;100.00
3142;BME280;1581;51.568;6.998;2024-01-16T04:07:05;100169.84;;;3.03;100.00
3142;BME280;1581;51.568;6.998;2024-01-16T04:09:33;100176.59;;;3.06;100.00
3142;BME280;1581;51.568;6.998;2024-01-16T04:12:00;100165.72;;;3.01;100.00
3142;BME280;1581;51.568;6.998;2024-01-16T04:14:28;100168.09;;;3.12;100.00
3142;BME280;1581;51.568;6.998;2024-01-16T04:16:55;100165.19;;;2.97;100.00
3142;BME280;1581;51.568;6.998;2024-01-16T04:19:22;100157.91;;;3.17;100.00
3142;BME280;1581;51.568;6.998;2024-01-16T04:21:50;100165.09;;;3.07;100.00
3142;BME280;1581;51.568;6.998;2024-01-16T04:24:19;100169.38;;;3.08;100.00
3142;BME280;1581;51.568;6.998;2024-01-16T04:26:46;100171.66;;;3.03;100.00
3142;BME280;1581;51.568;6.998;2024-01-16T04:29:13;100170.72;;;3.12;100.00
3142;BME280;1581;51.568;6.998;2024-01-16T04:31:41;100163.28;;;3.07;100.00
3142;BME280;1581;51.568;6.998;2024-01-16T04:34:09;100166.53;;;3.01;100.00
3142;BME280;1581;51.568;6.998;2024-01-16T04:36:36;100167.47;;;2.92;100.00
3142;BME280;1581;51.568;6.998;2024-01-16T04:39:04;100167.47;;;2.92;100.00
3142;BME280;1581;51.568;6.998;2024-01-16T04:41:32;100167.84;;;2.97;100.00
3142;BME280;1581;51.568;6.998;2024-01-16T04:44:00;100163.75;;;3.03;100.00
3142;BME280;1581;51.568;6.998;2024-01-16T04:46:28;100164.28;;;3.06;100.00
3142;BME280;1581;51.568;6.998;2024-01-16T04:48:56;100159.78;;;2.99;100.00
3142;BME280;1581;51.568;6.998;2024-01-16T04:51:45;100166.69;;;3.00;100.00
3142;BME280;1581;51.568;6.998;2024-01-16T04:54:13;100168.69;;;3.06;100.00
3142;BME280;1581;51.568;6.998;2024-01-16T04:56:42;100160.19;;;3.12;100.00
3142;BME280;1581;51.568;6.998;2024-01-16T04:59:09;100158.53;;;3.11;100.00
3142;BME280;1581;51.568;6.998;2024-01-16T05:01:36;100155.41;;;3.07;100.00
3142;BME280;1581;51.568;6.998;2024-01-16T05:04:04;100150.00;;;3.17;100.00
3142;BME280;1581;51.568;6.998;2024-01-16T05:06:34;100153.22;;;3.28;100.00
3142;BME280;1581;51.568;6.998;2024-01-16T05:09:02;100149.75;;;3.28;100.00
3142;BME280;1581;51.568;6.998;2024-01-16T05:11:30;100156.00;;;3.27;100.00
3142;BME280;1581;51.568;6.998;2024-01-16T05:13:58;100149.28;;;3.07;100.00
3142;BME280;1581;51.568;6.998;2024-01-16T05:16:26;100146.66;;;3.07;100.00
3142;BME280;1581;51.568;6.998;2024-01-16T05:18:54;100147.03;;;3.12;100.00
3142;BME280;1581;51.568;6.998;2024-01-16T05:21:22;100137.31;;;3.12;100.00
3142;BME280;1581;51.568;6.998;2024-01-16T05:23:50;100144.03;;;3.07;100.00
3142;BME280;1581;51.568;6.998;2024-01-16T05:26:17;100139.19;;;3.20;100.00
3142;BME280;1581;51.568;6.998;2024-01-16T05:28:45;100143.47;;;3.21;100.00
3142;BME280;1581;51.568;6.998;2024-01-16T05:31:13;100150.72;;;3.27;100.00
3142;BME280;1581;51.568;6.998;2024-01-16T05:33:41;100153.63;;;3.16;100.00
3142;BME280;1581;51.568;6.998;2024-01-16T05:36:09;100142.84;;;3.35;100.00
3142;BME280;1581;51.568;6.998;2024-01-16T05:38:37;100147.41;;;3.25;100.00
3142;BME280;1581;51.568;6.998;2024-01-16T05:41:45;100156.72;;;3.11;100.00
3142;BME280;1581;51.568;6.998;2024-01-16T05:44:13;100140.34;;;3.25;100.00
3142;BME280;1581;51.568;6.998;2024-01-16T05:46:44;100145.25;;;3.20;100.00
3142;BME280;1581;51.568;6.998;2024-01-16T05:49:12;100130.59;;;3.18;100.00
3142;BME280;1581;51.568;6.998;2024-01-16T05:51:39;100125.34;;;3.18;100.00
3142;BME280;1581;51.568;6.998;2024-01-16T05:54:07;100124.91;;;3.30;100.00
3142;BME280;1581;51.568;6.998;2024-01-16T05:56:34;100118.63;;;3.23;100.00
3142;BME280;1581;51.568;6.998;2024-01-16T05:59:02;100129.59;;;3.11;100.00
3142;BME280;1581;51.568;6.998;2024-01-16T06:01:30;100125.25;;;3.02;100.00
3142;BME280;1581;51.568;6.998;2024-01-16T06:03:59;100128.56;;;3.04;100.00
3142;BME280;1581;51.568;6.998;2024-01-16T06:06:26;100125.22;;;2.94;100.00
3142;BME280;1581;51.568;6.998;2024-01-16T06:08:54;100127.00;;;3.19;100.00
3142;BME280;1581;51.568;6.998;2024-01-16T06:11:30;100116.47;;;3.19;100.00
3142;BME280;1581;51.568;6.998;2024-01-16T06:13:58;100121.28;;;2.98;100.00
3142;BME280;1581;51.568;6.998;2024-01-16T06:16:25;100118.81;;;2.96;100.00
3142;BME280;1581;51.568;6.998;2024-01-16T06:18:53;100120.81;;;3.02;100.00
3142;BME280;1581;51.568;6.998;2024-01-16T06:21:22;100130.25;;;3.13;100.00
3142;BME280;1581;51.568;6.998;2024-01-16T06:23:49;100126.59;;;3.06;100.00
3142;BME280;1581;51.568;6.998;2024-01-16T06:26:17;100124.06;;;2.96;100.00
3142;BME280;1581;51.568;6.998;2024-01-16T06:28:44;100125.41;;;3.00;100.00
3142;BME280;1581;51.568;6.998;2024-01-16T06:31:12;100127.94;;;3.10;100.00
3142;BME280;1581;51.568;6.998;2024-01-16T06:33:39;100127.69;;;2.95;100.00
3142;BME280;1581;51.568;6.998;2024-01-16T06:36:07;100128.44;;;3.13;100.00
3142;BME280;1581;51.568;6.998;2024-01-16T06:38:38;100122.72;;;3.18;100.00
3142;BME280;1581;51.568;6.998;2024-01-16T06:41:06;100135.84;;;3.10;100.00
3142;BME280;1581;51.568;6.998;2024-01-16T06:43:34;100129.59;;;3.11;100.00
3142;BME280;1581;51.568;6.998;2024-01-16T06:46:01;100128.13;;;3.16;100.00
3142;BME280;1581;51.568;6.998;2024-01-16T06:48:29;100134.94;;;3.01;100.00
3142;BME280;1581;51.568;6.998;2024-01-16T06:50:57;100134.66;;;3.04;100.00
3142;BME280;1581;51.568;6.998;2024-01-16T06:53:24;100134.72;;;3.20;100.00
3142;BME280;1581;51.568;6.998;2024-01-16T06:55:53;100138.63;;;3.08;100.00
3142;BME280;1581;51.568;6.998;2024-01-16T06:58:20;100136.03;;;3.16;100.00
3142;BME280;1581;51.568;6.998;2024-01-16T07:00:48;100137.56;;;3.01;100.00
3142;BME280;1581;51.568;6.998;2024-01-16T07:03:15;100142.44;;;3.14;100.00
3142;BME280;1581;51.568;6.998;2024-01-16T07:05:44;100143.56;;;3.11;100.00
3142;BME280;1581;51.568;6.998;2024-01-16T07:08:12;100139.59;;;3.07;100.00
3142;BME280;1581;51.568;6.998;2024-01-16T07:10:39;100152.38;;;3.02;100.00
3142;BME280;1581;51.568;6.998;2024-01-16T07:13:08;100156.00;;;3.01;100.00
3142;BME280;1581;51.568;6.998;2024-01-16T07:15:35;100151.25;;;3.05;100.00
3142;BME280;1581;51.568;6.998;2024-01-16T07:18:03;100152.38;;;3.02;100.00
3142;BME280;1581;51.568;6.998;2024-01-16T07:20:31;100157.81;;;3.01;100.00
3142;BME280;1581;51.568;6.998;2024-01-16T07:22:59;100159.91;;;2.89;100.00
3142;BME280;1581;51.568;6.998;2024-01-16T07:25:27;100164.09;;;2.82;100.00
3142;BME280;1581;51.568;6.998;2024-01-16T07:27:54;100166.66;;;2.92;100.00
3142;BME280;1581;51.568;6.998;2024-01-16T07:30:23;100166.38;;;2.77;100.00
3142;BME280;1581;51.568;6.998;2024-01-16T07:32:51;100170.03;;;2.84;100.00
3142;BME280;1581;51.568;6.998;2024-01-16T07:35:19;100175.00;;;2.87;100.00
3142;BME280;1581;51.568;6.998;2024-01-16T07:37:46;100172.25;;;2.97;100.00
3142;BME280;1581;51.568;6.998;2024-01-16T07:40:14;100174.78;;;2.81;100.00
3142;BME280;1581;51.568;6.998;2024-01-16T07:42:43;100183.09;;;2.94;100.00
3142;BME280;1581;51.568;6.998;2024-01-16T07:45:10;100176.31;;;2.91;100.00
3142;BME280;1581;51.568;6.998;2024-01-16T07:47:39;100183.25;;;2.92;100.00
3142;BME280;1581;51.568;6.998;2024-01-16T07:50:08;100182.88;;;2.87;100.00
3142;BME280;1581;51.568;6.998;2024-01-16T07:52:36;100176.31;;;2.91;100.00
3142;BME280;1581;51.568;6.998;2024-01-16T07:55:04;100182.00;;;2.79;100.00
3142;BME280;1581;51.568;6.998;2024-01-16T07:57:31;100185.34;;;2.89;100.00
3142;BME280;1581;51.568;6.998;2024-01-16T07:59:59;100180.84;;;2.81;100.00
3142;BME280;1581;51.568;6.998;2024-01-16T08:02:32;100181.91;;;2.88;100.00
3142;BME280;1581;51.568;6.998;2024-01-16T08:05:01;100190.06;;;2.77;100.00
3142;BME280;1581;51.568;6.998;2024-01-16T08:07:28;100193.59;;;2.68;100.00
3142;BME280;1581;51.568;6.998;2024-01-16T08:09:56;100192.41;;;2.63;100.00
3142;BME280;1581;51.568;6.998;2024-01-16T08:12:23;100200.34;;;2.71;100.00
3142;BME280;1581;51.568;6.998;2024-01-16T08:14:50;100201.03;;;2.73;100.00
3142;BME280;1581;51.568;6.998;2024-01-16T08:17:18;100192.91;;;2.84;100.00
3142;BME280;1581;51.568;6.998;2024-01-16T08:19:45;100200.56;;;2.77;100.00
3142;BME280;1581;51.568;6.998;2024-01-16T08:22:14;100198.47;;;2.63;100.00
3142;BME280;1581;51.568;6.998;2024-01-16T08:24:41;100192.41;;;2.63;100.00
3142;BME280;1581;51.568;6.998;2024-01-16T08:27:09;100189.38;;;2.58;100.00
3142;BME280;1581;51.568;6.998;2024-01-16T08:29:36;100182.97;;;2.78;100.00
3142;BME280;1581;51.568;6.998;2024-01-16T08:32:04;100182.22;;;2.85;100.00
3142;BME280;1581;51.568;6.998;2024-01-16T08:34:32;100190.41;;;2.82;100.00
3142;BME280;1581;51.568;6.998;2024-01-16T08:36:59;100185.00;;;2.84;100.00
3142;BME280;1581;51.568;6.998;2024-01-16T08:39:28;100198.06;;;2.76;100.00
3142;BME280;1581;51.568;6.998;2024-01-16T08:41:59;100191.31;;;2.91;100.00
3142;BME280;1581;51.568;6.998;2024-01-16T08:44:28;100200.84;;;2.92;100.00
3142;BME280;1581;51.568;6.998;2024-01-16T08:46:55;100199.75;;;3.02;100.00
3142;BME280;1581;51.568;6.998;2024-01-16T08:49:23;100200.47;;;2.87;100.00
3142;BME280;1581;51.568;6.998;2024-01-16T08:51:51;100205.47;;;2.98;100.00
3142;BME280;1581;51.568;6.998;2024-01-16T08:54:18;100200.72;;;3.01;100.00
3142;BME280;1581;51.568;6.998;2024-01-16T08:56:50;100211.66;;;2.89;100.00
3142;BME280;1581;51.568;6.998;2024-01-16T08:59:17;100204.28;;;2.92;100.00
3142;BME280;1581;51.568;6.998;2024-01-16T09:01:46;100214.22;;;2.98;100.00
3142;BME280;1581;51.568;6.998;2024-01-16T09:04:13;100205.88;;;2.85;100.00
3142;BME280;1581;51.568;6.998;2024-01-16T09:06:41;100207.69;;;2.85;100.00
3142;BME280;1581;51.568;6.998;2024-01-16T09:09:08;100207.31;;;2.80;100.00
3142;BME280;1581;51.568;6.998;2024-01-16T09:11:50;100207.94;;;2.74;100.00
3142;BME280;1581;51.568;6.998;2024-01-16T09:14:17;100216.69;;;3.00;100.00
3142;BME280;1581;51.568;6.998;2024-01-16T09:16:46;100207.66;;;3.02;100.00
3142;BME280;1581;51.568;6.998;2024-01-16T09:19:13;100204.50;;;2.99;100.00
3142;BME280;1581;51.568;6.998;2024-01-16T09:21:41;100211.13;;;3.03;100.00
3142;BME280;1581;51.568;6.998;2024-01-16T09:24:09;100211.03;;;2.95;100.00
3142;BME280;1581;51.568;6.998;2024-01-16T09:26:38;100214.56;;;3.03;100.00
3142;BME280;1581;51.568;6.998;2024-01-16T09:29:10;100207.91;;;3.17;100.00
3142;BME280;1581;51.568;6.998;2024-01-16T09:31:37;100207.19;;;3.07;100.00
3142;BME280;1581;51.568;6.998;2024-01-16T09:34:05;100211.53;;;3.16;100.00
3142;BME280;1581;51.568;6.998;2024-01-16T09:36:33;100204.56;;;3.07;100.00
3142;BME280;1581;51.568;6.998;2024-01-16T09:39:02;100210.63;;;2.99;100.00
3142;BME280;1581;51.568;6.998;2024-01-16T09:41:29;100206.06;;;2.84;100.00
3142;BME280;1581;51.568;6.998;2024-01-16T09:43:58;100197.53;;;2.90;100.00
3142;BME280;1581;51.568;6.998;2024-01-16T09:46:27;100206.91;;;3.10;100.00
3142;BME280;1581;51.568;6.998;2024-01-16T09:48:56;100194.03;;;3.32;100.00
3142;BME280;1581;51.568;6.998;2024-01-16T09:51:24;100203.75;;;3.06;100.00
3142;BME280;1581;51.568;6.998;2024-01-16T09:53:51;100204.09;;;3.11;100.00
3142;BME280;1581;51.568;6.998;2024-01-16T09:56:23;100203.28;;;3.11;100.00
3142;BME280;1581;51.568;6.998;2024-01-16T09:58:57;100196.56;;;3.16;100.00
3142;BME280;1581;51.568;6.998;2024-01-16T10:01:46;100200.19;;;3.15;100.00
3142;BME280;1581;51.568;6.998;2024-01-16T10:04:15;100207.31;;;2.97;100.00
3142;BME280;1581;51.568;6.998;2024-01-16T10:06:46;100194.47;;;3.20;100.00
3142;BME280;1581;51.568;6.998;2024-01-16T10:09:13;100197.09;;;3.20;100.00
3142;BME280;1581;51.568;6.998;2024-01-16T10:11:42;100197.91;;;3.20;100.00
3142;BME280;1581;51.568;6.998;2024-01-16T10:14:10;100193.66;;;3.19;100.00
3142;BME280;1581;51.568;6.998;2024-01-16T10:16:59;100197.81;;;3.30;100.00
3142;BME280;1581;51.568;6.998;2024-01-16T10:19:29;100195.47;;;3.27;100.00
3142;BME280;1581;51.568;6.998;2024-01-16T10:22:03;100192.63;;;3.20;100.00
3142;BME280;1581;51.568;6.998;2024-01-16T10:24:32;100188.25;;;3.29;100.00
3142;BME280;1581;51.568;6.998;2024-01-16T10:27:02;100200.38;;;2.96;100.00
3142;BME280;1581;51.568;6.998;2024-01-16T10:29:30;100195.34;;;3.03;100.00
3142;BME280;1581;51.568;6.998;2024-01-16T10:32:00;100182.56;;;3.16;100.00
3142;BME280;1581;51.568;6.998;2024-01-16T10:34:28;100175.53;;;3.16;100.00
3142;BME280;1581;51.568;6.998;2024-01-16T10:36:59;100174.81;;;3.39;100.00
3142;BME280;1581;51.568;6.998;2024-01-16T10:39:27;100177.19;;;3.50;100.00
3142;BME280;1581;51.568;6.998;2024-01-16T10:41:55;100178.19;;;3.57;100.00
3142;BME280;1581;51.568;6.998;2024-01-16T10:44:23;100174.75;;;3.57;100.00
3142;BME280;1581;51.568;6.998;2024-01-16T10:46:50;100178.63;;;3.78;100.00
3142;BME280;1581;51.568;6.998;2024-01-16T10:49:19;100180.22;;;3.63;100.00
3142;BME280;1581;51.568;6.998;2024-01-16T10:51:48;100172.91;;;3.49;100.00
3142;BME280;1581;51.568;6.998;2024-01-16T10:54:17;100174.94;;;3.63;100.00
3142;BME280;1581;51.568;6.998;2024-01-16T10:56:45;100181.84;;;3.64;100.00
3142;BME280;1581;51.568;6.998;2024-01-16T10:59:21;100182.41;;;3.76;100.00
3142;BME280;1581;51.568;6.998;2024-01-16T11:01:54;100168.78;;;3.88;100.00
3142;BME280;1581;51.568;6.998;2024-01-16T11:04:24;100166.34;;;4.03;100.00
3142;BME280;1581;51.568;6.998;2024-01-16T11:06:52;100163.00;;;3.85;100.00
3142;BME280;1581;51.568;6.998;2024-01-16T11:09:21;100159.78;;;3.65;100.00
3142;BME280;1581;51.568;6.998;2024-01-16T11:11:50;100155.44;;;3.48;100.00
3142;BME280;1581;51.568;6.998;2024-01-16T11:14:23;100159.16;;;3.63;100.00
3142;BME280;1581;51.568;6.998;2024-01-16T11:16:54;100153.91;;;3.71;100.00
3142;BME280;1581;51.568;6.998;2024-01-16T11:19:24;100161.19;;;3.85;100.00
3142;BME280;1581;51.568;6.998;2024-01-16T11:21:52;100174.31;;;3.77;100.00
3142;BME280;1581;51.568;6.998;2024-01-16T11:24:20;100167.88;;;3.64;100.00
3142;BME280;1581;51.568;6.998;2024-01-16T11:26:48;100160.78;;;3.64;100.00
3142;BME280;1581;51.568;6.998;2024-01-16T11:29:36;100160.38;;;3.93;100.00
3142;BME280;1581;51.568;6.998;2024-01-16T11:32:04;100173.44;;;4.02;100.00
3142;BME280;1581;51.568;6.998;2024-01-16T11:34:53;100178.47;;;3.46;100.00
3142;BME280;1581;51.568;6.998;2024-01-16T11:37:30;100169.38;;;3.41;100.00
3142;BME280;1581;51.568;6.998;2024-01-16T11:40:24;100162.16;;;3.43;100.00
3142;BME280;1581;51.568;6.998;2024-01-16T11:42:53;100162.38;;;3.49;100.00
3142;BME280;1581;51.568;6.998;2024-01-16T11:45:50;100168.22;;;3.36;100.00
3142;BME280;1581;51.568;6.998;2024-01-16T11:48:19;100158.44;;;3.53;100.00
3142;BME280;1581;51.568;6.998;2024-01-16T11:50:48;100151.28;;;3.71;100.00
3142;BME280;1581;51.568;6.998;2024-01-16T11:53:35;100138.66;;;3.49;100.00
3142;BME280;1581;51.568;6.998;2024-01-16T11:56:52;100142.09;;;3.50;100.00
3142;BME280;1581;51.568;6.998;2024-01-16T11:59:50;100133.13;;;3.60;100.00
3142;BME280;1581;51.568;6.998;2024-01-16T12:02:34;100115.38;;;3.70;100.00
3142;BME280;1581;51.568;6.998;2024-01-16T12:05:04;100121.13;;;3.74;100.00
3142;BME280;1581;51.568;6.998;2024-01-16T12:07:46;100118.66;;;3.72;100.00
3142;BME280;1581;51.568;6.998;2024-01-16T12:10:16;100114.69;;;3.68;100.00
3142;BME280;1581;51.568;6.998;2024-01-16T12:12:44;100112.22;;;3.59;100.00
3142;BME280;1581;51.568;6.998;2024-01-16T12:15:18;100105.31;;;3.74;100.00
3142;BME280;1581;51.568;6.998;2024-01-16T12:17:57;100104.22;;;3.92;100.00
3142;BME280;1581;51.568;6.998;2024-01-16T12:20:26;100100.19;;;3.64;100.00
3142;BME280;1581;51.568;6.998;2024-01-16T12:22:57;100097.97;;;3.93;100.00
3142;BME280;1581;51.568;6.998;2024-01-16T12:25:26;100093.50;;;3.86;100.00
3142;BME280;1581;51.568;6.998;2024-01-16T12:27:56;100094.50;;;3.93;100.00
3142;BME280;1581;51.568;6.998;2024-01-16T12:30:25;100090.84;;;3.78;100.00
3142;BME280;1581;51.568;6.998;2024-01-16T12:33:04;100081.75;;;3.64;100.00
3142;BME280;1581;51.568;6.998;2024-01-16T12:35:34;100077.44;;;3.55;100.00
3142;BME280;1581;51.568;6.998;2024-01-16T12:38:04;100074.69;;;3.73;100.00
3142;BME280;1581;51.568;6.998;2024-01-16T12:40:34;100079.59;;;3.60;100.00
3142;BME280;1581;51.568;6.998;2024-01-16T12:43:02;100078.97;;;3.74;100.00
3142;BME280;1581;51.568;6.998;2024-01-16T12:45:30;100071.38;;;3.71;100.00
3142;BME280;1581;51.568;6.998;2024-01-16T12:48:00;100072.41;;;3.78;100.00
3142;BME280;1581;51.568;6.998;2024-01-16T12:50:30;100074.88;;;3.79;100.00
3142;BME280;1581;51.568;6.998;2024-01-16T12:53:07;100069.47;;;3.97;100.00
3142;BME280;1581;51.568;6.998;2024-01-16T12:55:36;100067.44;;;3.67;100.00
3142;BME280;1581;51.568;6.998;2024-01-16T12:58:17;100059.06;;;3.63;100.00
3142;BME280;1581;51.568;6.998;2024-01-16T13:00:46;100050.13;;;3.64;100.00
3142;BME280;1581;51.568;6.998;2024-01-16T13:03:18;100059.72;;;3.73;100.00
3142;BME280;1581;51.568;6.998;2024-01-16T13:05:55;100059.88;;;3.72;100.00
3142;BME280;1581;51.568;6.998;2024-01-16T13:08:24;100059.13;;;4.03;100.00
3142;BME280;1581;51.568;6.998;2024-01-16T13:11:05;100066.97;;;3.87;99.32
3142;BME280;1581;51.568;6.998;2024-01-16T13:13:33;100060.59;;;4.14;97.82
3142;BME280;1581;51.568;6.998;2024-01-16T13:16:02;100055.00;;;4.24;95.99
3142;BME280;1581;51.568;6.998;2024-01-16T13:18:31;100058.28;;;4.26;97.71
3142;BME280;1581;51.568;6.998;2024-01-16T13:21:00;100063.06;;;4.07;97.97
3142;BME280;1581;51.568;6.998;2024-01-16T13:23:30;100054.34;;;4.07;99.13